createdAt,value
2023-02-06T00:00:48.782Z,85.00
2023-02-06T00:03:17.543Z,83.01
2023-02-06T00:05:45.580Z,84.65
2023-02-06T00:08:12.464Z,87.36
2023-02-06T00:10:39.403Z,86.18
2023-02-06T00:13:06.722Z,88.65
2023-02-06T00:15:33.621Z,89.65
2023-02-06T00:18:00.480Z,87.74
2023-02-06T00:20:27.437Z,86.76
2023-02-06T00:22:53.999Z,86.99
2023-02-06T00:25:21.004Z,84.56
2023-02-06T00:27:47.794Z,82.52
2023-02-06T00:30:15.306Z,83.16
2023-02-06T00:32:42.779Z,81.48
2023-02-06T00:35:09.416Z,79.25
2023-02-06T00:37:35.937Z,78.43
2023-02-06T00:40:02.462Z,79.09
2023-02-06T00:42:29.930Z,81.65
2023-02-06T00:44:56.536Z,82.20
2023-02-06T00:47:23.424Z,84.17
2023-02-06T00:49:50.014Z,83.18
2023-02-06T00:52:16.998Z,82.34
2023-02-06T00:54:44.105Z,81.05
2023-02-06T00:57:12.378Z,80.71
2023-02-06T00:59:39.345Z,81.16
2023-02-06T01:02:05.993Z,79.46
2023-02-06T01:04:32.564Z,78.34
2023-02-06T01:07:00.390Z,77.30
2023-02-06T01:09:27.304Z,77.08
2023-02-06T01:11:54.066Z,76.72
2023-02-06T01:14:25.209Z,77.34
2023-02-06T01:16:51.973Z,79.47
2023-02-06T01:19:19.623Z,78.64
2023-02-06T01:21:46.492Z,79.40
2023-02-06T01:24:13.344Z,78.30
2023-02-06T01:26:39.935Z,78.55
2023-02-06T01:29:06.843Z,81.84
2023-02-06T01:31:33.663Z,81.25
2023-02-06T01:34:00.958Z,81.00
2023-02-06T01:36:27.836Z,81.47
2023-02-06T01:38:54.308Z,80.10
2023-02-06T01:41:23.848Z,78.42
2023-02-06T01:44:16.838Z,77.87
2023-02-06T01:46:45.443Z,77.31
2023-02-06T01:49:16.678Z,77.14
2023-02-06T01:51:43.799Z,77.24
2023-02-06T01:54:11.576Z,76.64
2023-02-06T01:56:44.521Z,76.86
2023-02-06T01:59:12.447Z,79.84
2023-02-06T02:01:39.340Z,81.07
2023-02-06T02:04:10.601Z,79.05
2023-02-06T02:06:40.530Z,77.42
2023-02-06T02:09:07.498Z,78.01
2023-02-06T02:11:35.747Z,77.62
2023-02-06T02:14:03.904Z,77.19
2023-02-06T02:16:49.774Z,77.54
2023-02-06T02:19:16.482Z,79.07
2023-02-06T02:22:15.570Z,81.02
2023-02-06T02:24:45.456Z,80.63
2023-02-06T02:27:39.786Z,79.61
2023-02-06T02:30:07.631Z,79.04
2023-02-06T02:32:49.732Z,80.68
2023-02-06T02:35:16.292Z,81.10
2023-02-06T02:37:49.083Z,81.01
2023-02-06T02:40:21.826Z,78.89
2023-02-06T02:43:01.576Z,80.48
2023-02-06T02:45:46.897Z,78.86
2023-02-06T02:48:28.553Z,78.98
2023-02-06T02:50:56.279Z,79.58
2023-02-06T02:53:23.838Z,81.96
2023-02-06T02:55:50.333Z,84.20
2023-02-06T02:58:19.788Z,86.64
2023-02-06T03:00:51.409Z,87.42
2023-02-06T03:03:22.142Z,88.46
2023-02-06T03:06:27.099Z,86.57
2023-02-06T03:08:54.008Z,85.92
2023-02-06T03:11:21.844Z,83.22
2023-02-06T03:13:58.701Z,83.29
2023-02-06T03:16:29.147Z,84.19
2023-02-06T03:18:58.439Z,85.28
2023-02-06T03:21:25.978Z,83.34
2023-02-06T03:23:54.989Z,82.63
2023-02-06T03:26:23.969Z,83.60
2023-02-06T03:28:53.375Z,83.00
2023-02-06T03:31:24.656Z,83.15
2023-02-06T03:34:23.652Z,83.12
2023-02-06T03:36:52.390Z,82.61
2023-02-06T03:39:19.632Z,82.16
2023-02-06T03:41:46.988Z,84.90
2023-02-06T03:44:16.433Z,84.70
2023-02-06T03:46:44.574Z,84.76
2023-02-06T03:49:12.973Z,88.08
2023-02-06T03:51:43.921Z,86.41
2023-02-06T03:54:12.137Z,86.31
2023-02-06T03:56:52.637Z,88.59
2023-02-06T03:59:20.787Z,89.67
2023-02-06T04:01:49.592Z,91.13
2023-02-06T04:04:20.773Z,89.26
2023-02-06T04:06:47.902Z,87.28
2023-02-06T04:09:14.830Z,86.84
2023-02-06T04:11:41.512Z,85.21
2023-02-06T04:14:08.040Z,84.57
2023-02-06T04:16:34.919Z,85.13
2023-02-06T04:19:01.523Z,87.18
2023-02-06T04:21:29.040Z,89.37
2023-02-06T04:23:55.859Z,88.82
2023-02-06T04:26:22.926Z,88.07
2023-02-06T04:28:49.480Z,87.58
2023-02-06T04:31:17.615Z,87.14
2023-02-06T04:33:44.885Z,85.14
2023-02-06T04:36:11.567Z,84.98
2023-02-06T04:38:39.137Z,86.20
2023-02-06T04:41:07.280Z,83.73
2023-02-06T04:43:34.410Z,86.14
2023-02-06T04:46:01.145Z,85.69
2023-02-06T04:48:28.211Z,85.61
2023-02-06T04:50:55.009Z,86.37
2023-02-06T04:53:21.674Z,83.58
2023-02-06T04:55:49.111Z,84.15
2023-02-06T04:58:18.207Z,83.09
2023-02-06T05:00:45.045Z,84.38
2023-02-06T05:03:12.625Z,84.33
2023-02-06T05:05:41.860Z,83.95
2023-02-06T05:08:09.094Z,82.24
2023-02-06T05:10:36.060Z,81.38
2023-02-06T05:13:02.850Z,80.14
2023-02-06T05:15:29.466Z,80.19
2023-02-06T05:17:56.126Z,81.67
2023-02-06T05:20:22.700Z,82.34
2023-02-06T05:22:50.489Z,80.40
2023-02-06T05:25:17.655Z,78.51
2023-02-06T05:27:44.390Z,78.95
2023-02-06T05:30:11.863Z,78.94
2023-02-06T05:32:40.542Z,81.06
2023-02-06T05:35:07.570Z,79.55
2023-02-06T05:37:34.444Z,77.23
2023-02-06T05:40:01.148Z,76.95
2023-02-06T05:42:28.015Z,76.55
2023-02-06T05:44:55.004Z,76.95
2023-02-06T05:47:22.038Z,76.64
2023-02-06T05:49:48.939Z,76.77
2023-02-06T05:52:16.191Z,76.79
2023-02-06T05:54:43.563Z,77.73
2023-02-06T05:57:10.645Z,77.27
2023-02-06T05:59:37.473Z,76.99
2023-02-06T06:02:04.687Z,77.30
2023-02-06T06:04:32.508Z,78.51
2023-02-06T06:07:00.368Z,78.26
2023-02-06T06:09:30.060Z,77.69
2023-02-06T06:11:57.111Z,76.92
2023-02-06T06:14:24.087Z,77.03
2023-02-06T06:16:51.057Z,76.21
2023-02-06T06:19:17.758Z,76.80
2023-02-06T06:21:45.118Z,76.64
2023-02-06T06:24:12.214Z,78.37
2023-02-06T06:26:40.778Z,79.83
2023-02-06T06:29:08.174Z,78.43
2023-02-06T06:31:36.681Z,78.68
2023-02-06T06:34:04.101Z,78.29
2023-02-06T06:36:33.704Z,77.76
2023-02-06T06:39:01.022Z,78.46
2023-02-06T06:41:27.762Z,78.44
2023-02-06T06:43:58.329Z,78.53
2023-02-06T06:46:30.912Z,78.79
2023-02-06T06:48:57.356Z,78.83
2023-02-06T06:51:23.798Z,79.01
2023-02-06T06:53:50.916Z,78.96
2023-02-06T06:56:17.697Z,79.17
2023-02-06T06:58:47.274Z,79.19
2023-02-06T07:01:14.974Z,78.47
2023-02-06T07:03:44.766Z,77.83
2023-02-06T07:06:11.929Z,77.92
2023-02-06T07:08:44.525Z,77.75
2023-02-06T07:11:11.948Z,77.28
2023-02-06T07:13:38.735Z,77.11
2023-02-06T07:16:06.011Z,77.52
2023-02-06T07:18:32.888Z,77.52
2023-02-06T07:20:59.961Z,78.66
2023-02-06T07:23:26.739Z,78.62
2023-02-06T07:25:53.188Z,78.23
2023-02-06T07:28:19.694Z,77.08
2023-02-06T07:30:46.524Z,76.75
2023-02-06T07:33:13.142Z,76.63
2023-02-06T07:35:42.278Z,76.93
2023-02-06T07:38:08.614Z,77.38
2023-02-06T07:40:44.577Z,77.26
2023-02-06T07:43:14.787Z,76.75
2023-02-06T07:45:43.937Z,78.50
2023-02-06T07:48:12.359Z,79.68
2023-02-06T07:50:41.705Z,85.38
2023-02-06T07:53:08.518Z,87.04
2023-02-06T07:55:36.323Z,85.52
2023-02-06T07:58:03.461Z,84.30
2023-02-06T08:00:33.629Z,85.45
2023-02-06T08:03:02.590Z,87.68
2023-02-06T08:05:32.498Z,88.98
2023-02-06T08:07:59.316Z,89.28
2023-02-06T08:10:26.317Z,92.85
2023-02-06T08:12:53.008Z,92.95
2023-02-06T08:15:20.380Z,91.78
2023-02-06T08:17:48.124Z,92.81
2023-02-06T08:20:14.703Z,91.14
2023-02-06T08:22:41.432Z,90.66
2023-02-06T08:25:08.127Z,90.94
2023-02-06T08:27:35.442Z,95.32
2023-02-06T08:30:04.290Z,98.74
2023-02-06T08:32:37.113Z,99.80
2023-02-06T08:35:04.357Z,100.00
2023-02-06T08:37:34.546Z,99.88
2023-02-06T08:40:02.540Z,96.43
2023-02-06T08:42:30.712Z,96.13
2023-02-06T08:44:57.224Z,96.53
2023-02-06T08:47:24.305Z,94.39
2023-02-06T08:49:51.719Z,89.14
2023-02-06T08:52:18.378Z,93.86
2023-02-06T08:54:45.634Z,96.09
2023-02-06T08:57:13.153Z,95.82
2023-02-06T08:59:40.250Z,98.03
2023-02-06T09:02:10.118Z,97.75
2023-02-06T09:04:37.834Z,94.86
2023-02-06T09:07:06.065Z,95.34
2023-02-06T09:09:32.709Z,94.31
2023-02-06T09:12:03.979Z,92.39
2023-02-06T09:14:32.245Z,92.63
2023-02-06T09:16:58.878Z,94.54
2023-02-06T09:19:28.557Z,96.63
2023-02-06T09:21:57.055Z,100.00
2023-02-06T09:24:25.475Z,100.00
2023-02-06T09:26:59.820Z,100.00
2023-02-06T09:29:31.013Z,100.00
2023-02-06T09:31:58.967Z,100.00
2023-02-06T09:34:28.325Z,100.00
2023-02-06T09:36:57.504Z,100.00
2023-02-06T09:39:25.591Z,100.00
2023-02-06T09:41:55.832Z,100.00
2023-02-06T09:44:29.704Z,100.00
2023-02-06T09:47:06.390Z,100.00
2023-02-06T09:49:39.638Z,100.00
2023-02-06T09:52:09.101Z,100.00
2023-02-06T09:54:49.767Z,100.00
2023-02-06T09:57:40.197Z,100.00
2023-02-06T10:00:20.781Z,100.00
2023-02-06T10:02:47.399Z,100.00
2023-02-06T10:05:32.838Z,100.00
2023-02-06T10:08:08.704Z,100.00
2023-02-06T10:10:39.933Z,100.00
2023-02-06T10:13:16.501Z,100.00
2023-02-06T10:15:46.227Z,100.00
2023-02-06T10:18:16.800Z,100.00
2023-02-06T10:20:46.715Z,100.00
2023-02-06T10:23:26.531Z,100.00
2023-02-06T10:26:17.487Z,100.00
2023-02-06T10:28:49.615Z,100.00
2023-02-06T10:31:26.112Z,100.00
2023-02-06T10:34:08.171Z,100.00
2023-02-06T10:36:34.846Z,100.00
2023-02-06T10:39:13.504Z,100.00
2023-02-06T10:41:39.873Z,98.99
2023-02-06T10:44:25.932Z,99.48
2023-02-06T10:46:54.444Z,100.00
2023-02-06T10:49:24.205Z,96.09
2023-02-06T10:51:58.922Z,92.91
2023-02-06T10:54:27.240Z,94.46
2023-02-06T10:56:55.791Z,95.82
2023-02-06T10:59:26.732Z,95.66
2023-02-06T11:02:00.468Z,93.42
2023-02-06T11:04:29.888Z,90.75
2023-02-06T11:07:02.134Z,93.68
2023-02-06T11:09:28.794Z,92.86
2023-02-06T11:11:58.393Z,91.32
2023-02-06T11:14:40.698Z,91.10
2023-02-06T11:17:07.939Z,94.44
2023-02-06T11:19:38.982Z,96.33
2023-02-06T11:22:18.937Z,96.37
2023-02-06T11:24:59.818Z,100.00
2023-02-06T11:27:30.998Z,98.48
2023-02-06T11:30:03.274Z,94.00
2023-02-06T11:32:38.019Z,92.71
2023-02-06T11:35:07.821Z,90.80
2023-02-06T11:37:40.203Z,89.05
2023-02-06T11:40:19.029Z,90.31
2023-02-06T11:42:52.790Z,99.63
2023-02-06T11:45:29.719Z,96.25
2023-02-06T11:47:56.978Z,93.71
2023-02-06T11:50:28.487Z,92.37
2023-02-06T11:52:59.935Z,94.46
2023-02-06T11:55:32.034Z,97.00
2023-02-06T11:58:07.260Z,97.84
2023-02-06T12:00:36.028Z,95.93
2023-02-06T12:03:05.651Z,96.15
2023-02-06T12:05:40.750Z,97.93
2023-02-06T12:08:18.637Z,95.47
2023-02-06T12:11:01.255Z,99.03
2023-02-06T12:13:33.876Z,99.34
2023-02-06T12:16:06.473Z,94.49
2023-02-06T12:18:40.908Z,93.38
2023-02-06T12:21:11.942Z,97.27
2023-02-06T12:23:46.015Z,96.66
2023-02-06T12:26:19.236Z,95.60
2023-02-06T12:29:05.618Z,96.67
2023-02-06T12:31:38.973Z,94.46
2023-02-06T12:34:28.407Z,95.30
2023-02-06T12:37:16.632Z,96.33
2023-02-06T12:39:48.194Z,96.81
2023-02-06T12:42:34.420Z,95.91
2023-02-06T12:45:02.240Z,93.57
2023-02-06T12:47:43.778Z,89.55
2023-02-06T12:50:16.320Z,88.50
2023-02-06T12:52:56.900Z,84.74
2023-02-06T12:55:40.620Z,89.83
2023-02-06T12:58:22.333Z,91.06
2023-02-06T13:01:02.527Z,93.57
2023-02-06T13:03:29.728Z,87.53
2023-02-06T13:06:03.119Z,84.24
2023-02-06T13:08:49.374Z,83.82
2023-02-06T13:11:31.412Z,85.99
2023-02-06T13:14:02.219Z,80.58
2023-02-06T13:16:44.494Z,75.60
2023-02-06T13:19:23.305Z,74.24
2023-02-06T13:22:19.650Z,75.58
2023-02-06T13:24:49.200Z,76.05
2023-02-06T13:27:41.007Z,78.18
2023-02-06T13:30:28.996Z,78.42
2023-02-06T13:33:08.942Z,76.40
2023-02-06T13:35:35.794Z,74.92
2023-02-06T13:38:25.531Z,75.32
2023-02-06T13:41:14.326Z,77.28
2023-02-06T13:44:01.251Z,77.36
2023-02-06T13:46:40.031Z,76.82
2023-02-06T13:49:14.024Z,75.54
2023-02-06T13:51:47.568Z,74.08
2023-02-06T13:54:23.444Z,73.21
2023-02-06T13:57:08.315Z,71.00
2023-02-06T13:59:36.391Z,70.61
2023-02-06T14:02:11.999Z,71.54
2023-02-06T14:04:39.664Z,69.71
2023-02-06T14:07:06.255Z,68.79
2023-02-06T14:09:51.772Z,67.66
2023-02-06T14:12:35.361Z,66.64
2023-02-06T14:15:22.420Z,66.54
2023-02-06T14:18:00.429Z,68.37
2023-02-06T14:20:33.222Z,68.07
2023-02-06T14:23:18.308Z,67.22
2023-02-06T14:25:44.806Z,67.41
2023-02-06T14:28:22.427Z,66.39
2023-02-06T14:31:16.888Z,66.59
2023-02-06T14:33:52.471Z,67.39
2023-02-06T14:36:19.033Z,69.69
2023-02-06T14:39:05.183Z,68.85
2023-02-06T14:41:33.220Z,68.83
2023-02-06T14:44:00.299Z,69.11
2023-02-06T14:46:29.474Z,69.84
2023-02-06T14:48:58.305Z,69.11
2023-02-06T14:51:41.731Z,68.27
2023-02-06T14:54:27.184Z,68.37
2023-02-06T14:57:04.724Z,68.04
2023-02-06T14:59:35.462Z,66.79
2023-02-06T15:02:12.194Z,66.67
2023-02-06T15:04:47.431Z,66.73
2023-02-06T15:07:25.133Z,65.77
2023-02-06T15:09:56.359Z,65.83
2023-02-06T15:12:25.140Z,66.65
2023-02-06T15:14:53.067Z,66.44
2023-02-06T15:17:21.889Z,65.96
2023-02-06T15:19:51.493Z,65.98
2023-02-06T15:22:27.146Z,66.40
2023-02-06T15:24:59.962Z,65.71
2023-02-06T15:27:31.010Z,65.60
2023-02-06T15:29:58.975Z,65.55
2023-02-06T15:32:39.142Z,65.12
2023-02-06T15:35:20.079Z,64.96
2023-02-06T15:37:46.930Z,66.09
2023-02-06T15:40:18.871Z,66.31
2023-02-06T15:42:48.951Z,66.74
2023-02-06T15:45:18.265Z,67.41
2023-02-06T15:47:46.424Z,67.70
2023-02-06T15:50:17.603Z,67.90
2023-02-06T15:52:48.180Z,68.41
2023-02-06T15:55:27.302Z,69.51
2023-02-06T15:57:55.673Z,69.26
2023-02-06T16:00:24.387Z,69.50
2023-02-06T16:02:52.060Z,69.83
2023-02-06T16:05:37.447Z,68.80
2023-02-06T16:08:10.622Z,70.99
2023-02-06T16:10:38.821Z,71.02
2023-02-06T16:13:16.948Z,72.00
2023-02-06T16:16:01.923Z,72.77
2023-02-06T16:18:37.671Z,72.57
2023-02-06T16:21:37.189Z,72.52
2023-02-06T16:24:16.616Z,72.46
2023-02-06T16:26:47.143Z,73.38
2023-02-06T16:29:29.601Z,73.03
2023-02-06T16:32:00.798Z,72.94
2023-02-06T16:34:41.381Z,74.02
2023-02-06T16:37:16.115Z,74.25
2023-02-06T16:39:45.623Z,74.37
2023-02-06T16:42:16.873Z,74.71
2023-02-06T16:44:47.246Z,74.81
2023-02-06T16:47:20.457Z,74.47
2023-02-06T16:49:51.284Z,74.30
2023-02-06T16:52:20.880Z,74.96
2023-02-06T16:54:47.970Z,75.41
2023-02-06T16:57:19.511Z,75.21
2023-02-06T16:59:46.240Z,75.44
2023-02-06T17:02:13.787Z,75.85
2023-02-06T17:04:41.049Z,76.61
2023-02-06T17:07:16.317Z,76.32
2023-02-06T17:09:43.906Z,75.68
2023-02-06T17:12:15.156Z,75.78
2023-02-06T17:14:42.878Z,75.74
2023-02-06T17:17:10.410Z,75.81
2023-02-06T17:19:39.820Z,75.63
2023-02-06T17:22:08.413Z,75.44
2023-02-06T17:24:36.507Z,75.77
2023-02-06T17:27:05.069Z,75.77
2023-02-06T17:29:31.950Z,75.60
2023-02-06T17:31:59.852Z,75.67
2023-02-06T17:34:27.683Z,75.49
2023-02-06T17:36:55.620Z,75.83
2023-02-06T17:39:22.526Z,75.59
2023-02-06T17:41:49.415Z,75.70
2023-02-06T17:44:18.070Z,75.42
2023-02-06T17:46:45.609Z,76.47
2023-02-06T17:49:12.764Z,75.95
2023-02-06T17:51:41.324Z,76.57
2023-02-06T17:54:08.255Z,75.99
2023-02-06T17:56:36.516Z,75.74
2023-02-06T17:59:05.704Z,74.95
2023-02-06T18:01:34.672Z,75.48
2023-02-06T18:04:01.580Z,75.55
2023-02-06T18:06:33.348Z,75.37
2023-02-06T18:09:04.815Z,75.53
2023-02-06T18:11:32.915Z,75.90
2023-02-06T18:13:59.530Z,76.19
2023-02-06T18:16:28.141Z,75.82
2023-02-06T18:18:55.349Z,76.80
2023-02-06T18:21:27.063Z,77.05
2023-02-06T18:23:56.129Z,77.93
2023-02-06T18:26:24.395Z,78.19
2023-02-06T18:28:54.420Z,77.28
2023-02-06T18:31:27.424Z,76.92
2023-02-06T18:33:56.595Z,77.13
2023-02-06T18:36:25.191Z,76.51
2023-02-06T18:38:54.447Z,76.88
2023-02-06T18:41:42.867Z,77.21
2023-02-06T18:44:14.417Z,76.08
2023-02-06T18:46:42.023Z,76.57
2023-02-06T18:49:10.542Z,77.15
2023-02-06T18:51:40.979Z,77.01
2023-02-06T18:54:08.015Z,77.26
2023-02-06T18:56:35.302Z,77.30
2023-02-06T18:59:03.998Z,77.67
2023-02-06T19:01:33.010Z,77.44
2023-02-06T19:04:02.150Z,77.09
2023-02-06T19:06:32.484Z,76.95
2023-02-06T19:08:59.598Z,76.78
2023-02-06T19:11:26.751Z,76.67
2023-02-06T19:13:59.562Z,75.87
2023-02-06T19:16:35.736Z,76.10
2023-02-06T19:19:05.090Z,76.57
2023-02-06T19:21:34.920Z,76.26
2023-02-06T19:24:02.407Z,76.35
2023-02-06T19:26:29.439Z,76.13
2023-02-06T19:28:56.674Z,76.55
2023-02-06T19:31:27.887Z,76.29
2023-02-06T19:33:56.472Z,76.09
2023-02-06T19:36:27.096Z,77.14
2023-02-06T19:38:55.594Z,76.84
2023-02-06T19:41:23.906Z,77.17
2023-02-06T19:43:52.745Z,76.63
2023-02-06T19:46:21.467Z,76.94
2023-02-06T19:48:50.628Z,76.91
2023-02-06T19:51:21.774Z,76.83
2023-02-06T19:53:51.167Z,77.65
2023-02-06T19:56:31.104Z,77.34
2023-02-06T19:59:02.858Z,76.84
2023-02-06T20:01:30.653Z,76.62
2023-02-06T20:03:58.292Z,76.76
2023-02-06T20:06:25.707Z,76.46
2023-02-06T20:08:53.329Z,76.11
2023-02-06T20:11:24.168Z,76.64
2023-02-06T20:14:03.841Z,76.36
2023-02-06T20:16:39.651Z,76.13
2023-02-06T20:19:16.401Z,75.85
2023-02-06T20:21:48.342Z,76.31
2023-02-06T20:24:18.696Z,75.96
2023-02-06T20:26:55.551Z,76.92
2023-02-06T20:29:32.896Z,75.97
2023-02-06T20:32:02.214Z,76.09
2023-02-06T20:34:29.751Z,76.17
2023-02-06T20:36:56.250Z,75.52
2023-02-06T20:39:24.758Z,75.39
2023-02-06T20:41:51.696Z,75.76
2023-02-06T20:44:19.335Z,75.85
2023-02-06T20:46:46.899Z,75.57
2023-02-06T20:49:15.173Z,76.69
2023-02-06T20:51:42.008Z,76.47
2023-02-06T20:54:11.451Z,76.58
2023-02-06T20:56:39.803Z,76.71
2023-02-06T20:59:07.030Z,77.62
2023-02-06T21:01:34.884Z,78.75
2023-02-06T21:04:04.508Z,78.47
2023-02-06T21:06:31.856Z,77.20
2023-02-06T21:09:01.431Z,76.95
2023-02-06T21:11:30.285Z,77.92
2023-02-06T21:13:57.869Z,78.15
2023-02-06T21:16:24.893Z,78.04
2023-02-06T21:18:52.400Z,77.75
2023-02-06T21:21:19.136Z,78.28
2023-02-06T21:23:49.784Z,78.39
2023-02-06T21:26:18.324Z,78.17
2023-02-06T21:28:46.438Z,77.40
2023-02-06T21:31:15.674Z,77.92
2023-02-06T21:33:45.939Z,77.46
2023-02-06T21:36:15.533Z,77.04
2023-02-06T21:38:43.273Z,77.82
2023-02-06T21:41:20.451Z,77.98
2023-02-06T21:43:47.133Z,78.28
2023-02-06T21:46:14.061Z,79.46
2023-02-06T21:48:43.176Z,79.56
2023-02-06T21:51:11.440Z,79.95
2023-02-06T21:53:38.968Z,78.11
2023-02-06T21:56:11.664Z,76.52
2023-02-06T21:58:39.692Z,75.80
2023-02-06T22:01:09.085Z,76.41
2023-02-06T22:03:35.903Z,76.68
2023-02-06T22:06:08.765Z,76.54
2023-02-06T22:08:40.721Z,76.90
2023-02-06T22:11:33.377Z,75.37
2023-02-06T22:14:01.655Z,73.88
2023-02-06T22:16:29.855Z,72.77
2023-02-06T22:18:56.930Z,72.38
2023-02-06T22:21:24.858Z,72.24
2023-02-06T22:23:51.823Z,72.11
2023-02-06T22:26:21.022Z,72.67
2023-02-06T22:28:47.903Z,72.60
2023-02-06T22:31:17.255Z,73.41
2023-02-06T22:33:44.519Z,73.51
2023-02-06T22:36:13.228Z,72.76
2023-02-06T22:38:41.000Z,73.27
2023-02-06T22:41:09.430Z,73.57
2023-02-06T22:43:37.229Z,72.75
2023-02-06T22:46:04.250Z,72.09
2023-02-06T22:48:31.320Z,71.86
2023-02-06T22:51:05.501Z,72.24
2023-02-06T22:53:35.219Z,73.04
2023-02-06T22:56:26.554Z,73.04
2023-02-06T22:58:53.576Z,72.40
2023-02-06T23:01:22.187Z,72.47
2023-02-06T23:03:51.406Z,73.60
2023-02-06T23:06:17.936Z,73.81
2023-02-06T23:08:44.573Z,73.13
2023-02-06T23:11:12.190Z,73.71
2023-02-06T23:13:39.486Z,74.07
2023-02-06T23:16:06.518Z,74.83
2023-02-06T23:18:33.944Z,74.75
2023-02-06T23:21:03.302Z,73.56
2023-02-06T23:23:30.479Z,72.70
2023-02-06T23:25:57.807Z,73.79
2023-02-06T23:28:25.486Z,74.00
2023-02-06T23:30:53.849Z,73.32
2023-02-06T23:33:20.483Z,71.71
2023-02-06T23:35:47.456Z,71.38
2023-02-06T23:38:14.029Z,70.73
2023-02-06T23:40:40.562Z,71.23
2023-02-06T23:43:07.156Z,71.35
2023-02-06T23:45:33.976Z,71.77
2023-02-06T23:48:00.701Z,70.84
2023-02-06T23:50:27.594Z,71.24
2023-02-06T23:52:54.622Z,72.19
2023-02-06T23:55:21.592Z,71.70
2023-02-06T23:57:48.197Z,71.43
